Time;durP1;ratioP1;P1;durP2;ratioP2;P2;SDS_P1;SDS_P2;PMS_P1;PMS_P2;Temp;Humidity;BMP_temperature;BMP_pressure;BME280_temperature;BME280_humidity;BME280_pressure;Samples;Min_cycle;Max_cycle;Signal;HPM_P1;HPM_P2
2022/07/18 00:01:56;;;;;;;4.43;2.42;;;22.00;57.60;;;;;;4858797;29;20041;-76
2022/07/18 00:04:23;;;;;;;4.18;2.20;;;22.00;57.60;;;;;;4858937;29;20132;-76
2022/07/18 00:06:49;;;;;;;4.18;2.25;;;22.00;57.60;;;;;;4873833;29;20037;-76
2022/07/18 00:09:14;;;;;;;3.17;1.90;;;22.00;58.20;;;;;;4858758;29;20040;-76
2022/07/18 00:11:40;;;;;;;3.42;2.10;;;22.00;57.60;;;;;;4858460;29;20037;-76
2022/07/18 00:14:06;;;;;;;4.57;2.63;;;22.00;57.60;;;;;;4858782;29;20096;-76
2022/07/18 00:16:32;;;;;;;5.07;2.50;;;22.00;57.70;;;;;;4859440;29;20037;-76
2022/07/18 00:18:58;;;;;;;3.60;2.20;;;22.00;57.60;;;;;;4859106;29;20041;-76
2022/07/18 00:21:25;;;;;;;4.70;2.50;;;22.00;57.70;;;;;;4859706;29;20163;-76
2022/07/18 00:23:51;;;;;;;4.03;2.33;;;22.00;57.80;;;;;;4859761;29;20041;-76
2022/07/18 00:26:17;;;;;;;3.63;2.20;;;22.00;57.80;;;;;;4857998;29;20037;-76
2022/07/18 00:28:42;;;;;;;5.43;2.50;;;22.00;57.80;;;;;;4858625;29;20507;-76
2022/07/18 00:31:08;;;;;;;3.38;2.00;;;22.00;57.90;;;;;;4859340;29;20033;-77
2022/07/18 00:33:34;;;;;;;4.18;2.35;;;22.00;57.90;;;;;;4859616;29;20528;-76
2022/07/18 00:36:00;;;;;;;4.53;2.15;;;22.00;57.90;;;;;;4858175;29;20450;-76
2022/07/18 00:38:26;;;;;;;4.63;2.55;;;21.90;57.90;;;;;;4858266;29;20076;-76
2022/07/18 00:40:51;;;;;;;4.18;2.20;;;22.00;57.80;;;;;;4858423;29;20033;-76
2022/07/18 00:43:17;;;;;;;3.95;2.20;;;22.00;57.90;;;;;;4858470;29;20026;-76
2022/07/18 00:45:47;;;;;;;4.40;2.38;;;21.90;57.80;;;;;;4859197;29;20108;-76
2022/07/18 00:48:13;;;;;;;3.22;2.15;;;21.90;57.70;;;;;;4843079;29;20034;-76
2022/07/18 00:50:40;;;;;;;5.78;2.55;;;21.90;57.80;;;;;;4858129;29;20508;-76
2022/07/18 00:53:06;;;;;;;3.97;2.20;;;21.90;57.70;;;;;;4858219;29;20112;-76
2022/07/18 00:55:32;;;;;;;3.00;2.00;;;22.00;57.80;;;;;;4859043;29;20163;-77
2022/07/18 00:57:58;;;;;;;3.25;1.80;;;21.90;57.80;;;;;;4858231;29;20029;-76
2022/07/18 01:03:09;;;;;;;3.88;2.17;;;21.90;57.80;;;;;;4859404;29;20037;-76
2022/07/18 01:05:34;;;;;;;3.40;2.15;;;22.00;57.80;;;;;;4859375;29;20048;-76
2022/07/18 01:08:00;;;;;;;4.90;2.22;;;21.90;57.70;;;;;;4873523;29;20089;-77
2022/07/18 01:10:27;;;;;;;3.80;2.35;;;21.90;57.80;;;;;;4859210;29;20065;-76
2022/07/18 01:12:52;;;;;;;5.57;2.22;;;21.90;57.70;;;;;;4858047;29;20075;-76
2022/07/18 01:15:18;;;;;;;4.80;2.38;;;21.90;57.80;;;;;;4857759;29;20061;-76
2022/07/18 01:17:44;;;;;;;3.42;2.00;;;22.00;57.80;;;;;;4858225;29;20466;-77
2022/07/18 01:20:10;;;;;;;3.03;2.03;;;21.90;57.80;;;;;;4858242;29;20052;-76
2022/07/18 01:22:38;;;;;;;4.47;2.45;;;21.90;57.80;;;;;;4858036;29;20036;-76
2022/07/18 01:25:05;;;;;;;4.85;2.35;;;21.90;57.60;;;;;;4858002;29;20037;-76
2022/07/18 01:27:31;;;;;;;4.88;2.08;;;21.90;57.70;;;;;;4859039;29;20029;-76
2022/07/18 01:30:00;;;;;;;3.58;1.95;;;21.90;57.70;;;;;;4861354;29;20029;-76
2022/07/18 01:32:26;;;;;;;4.65;2.50;;;21.90;57.80;;;;;;4862327;29;20491;-76
2022/07/18 01:34:52;;;;;;;3.40;2.10;;;22.00;57.90;;;;;;4862367;29;20104;-76
2022/07/18 01:37:18;;;;;;;3.97;2.28;;;21.90;57.80;;;;;;4861106;29;20416;-77
2022/07/18 01:39:45;;;;;;;3.95;2.15;;;21.90;57.80;;;;;;4861171;29;20483;-76
2022/07/18 01:42:11;;;;;;;4.40;2.40;;;21.90;57.70;;;;;;4861115;29;20559;-76
2022/07/18 01:44:47;;;;;;;3.78;2.17;;;21.90;57.70;;;;;;4862488;29;20034;-76
2022/07/18 01:47:12;;;;;;;6.00;2.63;;;21.90;57.70;;;;;;4860877;29;20442;-76
2022/07/18 01:49:40;;;;;;;3.75;2.10;;;21.90;57.70;;;;;;4862392;29;20065;-76
2022/07/18 01:52:07;;;;;;;3.55;2.08;;;21.90;57.70;;;;;;4860788;29;20033;-77
2022/07/18 01:54:34;;;;;;;4.68;2.42;;;22.00;57.70;;;;;;4860982;29;20539;-77
2022/07/18 01:57:01;;;;;;;4.03;2.35;;;22.00;57.60;;;;;;4860783;29;20029;-76
2022/07/18 01:59:27;;;;;;;3.75;2.38;;;22.00;57.60;;;;;;4860860;29;20029;-77
2022/07/18 02:01:53;;;;;;;3.45;2.10;;;21.90;57.60;;;;;;4861971;29;20025;-77
2022/07/18 02:04:19;;;;;;;5.03;2.40;;;21.90;57.60;;;;;;4861836;29;20052;-77
2022/07/18 02:06:45;;;;;;;4.72;2.33;;;22.00;57.70;;;;;;4861709;29;20491;-77
2022/07/18 02:09:11;;;;;;;5.35;2.20;;;22.00;57.60;;;;;;4861984;29;20037;-76
2022/07/18 02:11:37;;;;;;;4.47;2.15;;;22.00;58.20;;;;;;4861809;29;20094;-77
2022/07/18 02:14:05;;;;;;;5.10;2.20;;;22.00;57.60;;;;;;4876200;29;20052;-77
2022/07/18 02:16:31;;;;;;;3.00;1.77;;;22.00;57.60;;;;;;4860291;29;20045;-77
2022/07/18 02:18:57;;;;;;;3.90;2.35;;;22.00;57.50;;;;;;4861621;29;20038;-76
2022/07/18 02:21:23;;;;;;;5.35;2.70;;;21.90;57.60;;;;;;4861658;29;20029;-77
2022/07/18 02:23:50;;;;;;;4.18;2.35;;;22.00;57.60;;;;;;4861615;29;20034;-77
2022/07/18 02:26:17;;;;;;;4.88;2.33;;;22.00;57.70;;;;;;4875595;29;20085;-77
2022/07/18 02:28:43;;;;;;;2.38;1.85;;;21.90;57.70;;;;;;4860465;29;20557;-77
2022/07/18 02:31:09;;;;;;;4.63;2.30;;;22.00;57.70;;;;;;4860166;29;20108;-76
2022/07/18 02:33:35;;;;;;;4.47;2.15;;;22.00;57.90;;;;;;4875762;29;20502;-77
2022/07/18 02:36:01;;;;;;;3.55;2.10;;;21.90;57.80;;;;;;4861151;29;20044;-76
2022/07/18 02:38:26;;;;;;;4.47;2.40;;;21.90;57.90;;;;;;4860160;29;20033;-77
2022/07/18 02:40:52;;;;;;;5.20;2.63;;;21.90;57.90;;;;;;4860837;29;20034;-77
2022/07/18 02:43:18;;;;;;;4.22;2.28;;;21.90;57.80;;;;;;4861323;29;20039;-77
2022/07/18 02:45:44;;;;;;;2.88;1.77;;;21.90;57.80;;;;;;4860968;29;20157;-77
2022/07/18 02:48:10;;;;;;;3.65;2.20;;;21.90;57.90;;;;;;4861190;29;20520;-77
2022/07/18 02:50:35;;;;;;;3.78;2.28;;;21.90;57.80;;;;;;4860032;29;20041;-76
2022/07/18 02:53:01;;;;;;;4.70;2.42;;;21.90;57.90;;;;;;4861059;29;20112;-77
2022/07/18 02:55:27;;;;;;;4.35;2.50;;;21.90;57.80;;;;;;4861022;29;20037;-76
2022/07/18 02:58:04;;;;;;;3.95;2.20;;;21.90;57.90;;;;;;4861032;29;20474;-77
2022/07/18 03:00:32;;;;;;;;;;;21.90;57.90;;;;;;4861376;29;20029;-77
2022/07/18 03:02:58;;;;;;;4.50;2.20;;;21.90;57.90;;;;;;4860868;29;20436;-77
2022/07/18 03:05:24;;;;;;;3.03;2.00;;;21.90;57.90;;;;;;4860665;29;20112;-77
2022/07/18 03:07:50;;;;;;;5.35;2.20;;;21.90;57.80;;;;;;4860891;29;20482;-77
2022/07/18 03:10:15;;;;;;;3.85;2.00;;;21.90;57.90;;;;;;4859466;29;20372;-77
2022/07/18 03:12:42;;;;;;;4.80;2.40;;;21.90;57.80;;;;;;4861111;29;20487;-77
2022/07/18 03:15:08;;;;;;;4.03;2.20;;;21.90;57.90;;;;;;4860290;29;20030;-76
2022/07/18 03:17:34;;;;;;;3.55;2.20;;;21.90;57.90;;;;;;4860605;29;20030;-77
2022/07/18 03:20:00;;;;;;;3.88;2.20;;;21.90;57.90;;;;;;4860679;29;20026;-77
2022/07/18 03:22:25;;;;;;;3.80;2.28;;;21.90;57.80;;;;;;4860760;29;20383;-76
2022/07/18 03:24:51;;;;;;;3.92;2.17;;;21.90;57.90;;;;;;4860521;29;20121;-77
2022/07/18 03:27:17;;;;;;;4.55;2.30;;;21.90;57.90;;;;;;4860204;29;20592;-77
2022/07/18 03:29:43;;;;;;;4.13;2.35;;;21.90;57.70;;;;;;4874637;29;20030;-77
2022/07/18 03:32:08;;;;;;;2.83;1.92;;;21.90;57.90;;;;;;4860375;29;20490;-77
2022/07/18 03:34:34;;;;;;;3.50;2.10;;;21.90;57.90;;;;;;4860411;29;20029;-77
2022/07/18 03:37:00;;;;;;;3.47;2.25;;;21.90;57.90;;;;;;4858866;29;20029;-77
2022/07/18 03:39:26;;;;;;;4.28;2.10;;;21.90;57.90;;;;;;4860283;29;20033;-77
2022/07/18 03:41:52;;;;;;;4.22;2.47;;;21.90;57.90;;;;;;4860258;29;20558;-77
2022/07/18 03:44:17;;;;;;;3.42;2.05;;;21.90;57.90;;;;;;4858960;29;20029;-77
2022/07/18 03:46:43;;;;;;;4.03;2.13;;;21.90;57.90;;;;;;4874144;29;20029;-78
2022/07/18 03:49:09;;;;;;;4.65;2.28;;;21.90;57.90;;;;;;4860151;29;20494;-78
2022/07/18 03:51:35;;;;;;;5.85;2.35;;;21.90;57.90;;;;;;4859901;29;20043;-77
2022/07/18 03:54:01;;;;;;;3.65;2.10;;;21.90;57.70;;;;;;4858387;29;20068;-78
2022/07/18 03:56:27;;;;;;;3.53;2.20;;;21.90;57.70;;;;;;4858553;29;20057;-77
2022/07/18 03:58:53;;;;;;;3.70;2.10;;;21.90;57.70;;;;;;4859921;29;20033;-78
2022/07/18 04:01:18;;;;;;;3.67;2.30;;;21.90;57.60;;;;;;4859840;29;20037;-78
2022/07/18 04:03:44;;;;;;;5.20;2.60;;;21.90;57.70;;;;;;4859973;29;20444;-78
2022/07/18 04:06:10;;;;;;;3.15;1.90;;;21.90;57.70;;;;;;4859631;29;20074;-77
2022/07/18 04:08:36;;;;;;;5.22;2.53;;;21.90;57.50;;;;;;4858705;29;20033;-77
2022/07/18 04:11:02;;;;;;;3.17;2.03;;;22.00;57.70;;;;;;4858557;29;20032;-77
2022/07/18 04:13:27;;;;;;;3.30;2.20;;;21.90;57.60;;;;;;4858803;29;20030;-77
2022/07/18 04:15:53;;;;;;;3.42;2.05;;;21.90;57.60;;;;;;4859453;29;20037;-77
2022/07/18 04:18:19;;;;;;;3.90;1.95;;;21.90;57.60;;;;;;4859735;29;20030;-77
2022/07/18 04:20:44;;;;;;;3.33;2.10;;;21.90;57.60;;;;;;4859687;29;20458;-77
2022/07/18 04:23:11;;;;;;;2.97;2.05;;;21.90;58.20;;;;;;4859724;29;20041;-78
2022/07/18 04:25:39;;;;;;;3.63;2.20;;;21.90;57.60;;;;;;4858179;29;20085;-77
2022/07/18 04:28:06;;;;;;;3.92;2.33;;;22.00;57.70;;;;;;4859573;29;20089;-78
2022/07/18 04:30:32;;;;;;;3.90;2.33;;;22.00;57.80;;;;;;4859516;29;20442;-78
2022/07/18 04:33:00;;;;;;;3.95;2.30;;;21.90;57.60;;;;;;4858587;29;20041;-77
2022/07/18 04:35:26;;;;;;;3.08;2.05;;;21.90;57.70;;;;;;4873647;29;20028;-77
2022/07/18 04:37:52;;;;;;;4.40;2.15;;;21.90;58.30;;;;;;4859644;29;20029;-77
2022/07/18 04:40:18;;;;;;;3.47;2.35;;;21.90;57.80;;;;;;4859565;29;20394;-77
2022/07/18 04:42:44;;;;;;;3.70;2.33;;;21.90;57.80;;;;;;4860051;29;20030;-77
2022/07/18 04:45:10;;;;;;;4.13;2.40;;;21.90;57.80;;;;;;4873497;29;20026;-77
2022/07/18 04:47:36;;;;;;;3.42;2.10;;;21.90;57.90;;;;;;4858238;29;20507;-77
2022/07/18 04:50:03;;;;;;;4.35;2.40;;;21.90;57.80;;;;;;4859447;29;20030;-77
2022/07/18 04:52:39;;;;;;;4.00;2.22;;;21.90;57.80;;;;;;4859362;29;20041;-78
2022/07/18 04:55:07;;;;;;;4.43;2.60;;;21.90;57.80;;;;;;4858300;29;20029;-78
2022/07/18 04:57:34;;;;;;;4.65;2.40;;;21.90;57.80;;;;;;4873711;29;20513;-78
2022/07/18 05:00:01;;;;;;;3.83;2.08;;;21.90;57.90;;;;;;4858123;29;20534;-77
2022/07/18 05:02:27;;;;;;;4.03;2.10;;;21.90;57.90;;;;;;4859271;29;20034;-78
2022/07/18 05:04:53;;;;;;;3.85;2.30;;;21.90;57.90;;;;;;4861632;29;20053;-78
2022/07/18 05:07:19;;;;;;;4.47;2.45;;;21.90;57.90;;;;;;4862761;29;20085;-77
2022/07/18 05:09:45;;;;;;;3.15;2.10;;;21.90;57.90;;;;;;4862852;29;20025;-78
2022/07/18 05:12:11;;;;;;;3.45;2.15;;;21.90;57.90;;;;;;4861790;29;20044;-78
2022/07/18 05:14:36;;;;;;;3.20;2.03;;;21.90;57.90;;;;;;4862768;29;20457;-78
2022/07/18 05:17:03;;;;;;;4.00;2.10;;;21.90;57.90;;;;;;4862620;29;20029;-78
2022/07/18 05:19:29;;;;;;;4.47;2.42;;;21.90;57.90;;;;;;4863080;29;20056;-78
2022/07/18 05:21:54;;;;;;;3.58;2.08;;;21.90;57.90;;;;;;4861706;29;20045;-77
2022/07/18 05:24:20;;;;;;;4.85;2.63;;;21.90;57.90;;;;;;4862675;29;20056;-78
2022/07/18 05:26:46;;;;;;;3.75;2.40;;;21.90;57.90;;;;;;4862297;29;20025;-78
2022/07/18 05:29:12;;;;;;;4.30;2.15;;;21.90;57.90;;;;;;4862577;29;20052;-78
2022/07/18 05:31:40;;;;;;;4.18;2.55;;;21.90;57.90;;;;;;4845710;29;20029;-77
2022/07/18 05:34:06;;;;;;;3.83;2.38;;;21.90;57.90;;;;;;4862472;29;20402;-78
2022/07/18 05:36:31;;;;;;;3.78;2.25;;;21.90;58.60;;;;;;4862235;29;20030;-78
2022/07/18 05:38:57;;;;;;;3.38;2.15;;;21.90;57.90;;;;;;4876732;29;20037;-78
2022/07/18 05:41:23;;;;;;;3.83;2.35;;;21.90;57.90;;;;;;4862347;29;20049;-77
2022/07/18 05:43:49;;;;;;;4.57;2.50;;;21.90;58.00;;;;;;4861159;29;20066;-77
2022/07/18 05:46:15;;;;;;;3.85;2.30;;;21.90;58.00;;;;;;4862014;29;20029;-78
2022/07/18 05:48:41;;;;;;;4.70;2.40;;;21.90;57.90;;;;;;4861048;29;20037;-78
2022/07/18 05:51:07;;;;;;;4.53;2.33;;;21.90;58.00;;;;;;4861186;29;20037;-77
2022/07/18 05:53:33;;;;;;;4.88;2.50;;;21.90;57.90;;;;;;4862115;29;20056;-78
2022/07/18 05:55:59;;;;;;;3.08;2.20;;;21.90;57.80;;;;;;4861980;29;20490;-77
2022/07/18 05:58:24;;;;;;;4.75;2.33;;;21.90;57.90;;;;;;4862360;29;20475;-77
2022/07/18 06:00:50;;;;;;;3.97;2.38;;;22.00;57.90;;;;;;4860743;29;20037;-78
2022/07/18 06:03:16;;;;;;;3.97;2.40;;;22.00;57.90;;;;;;4862079;29;20033;-77
2022/07/18 06:05:42;;;;;;;3.95;2.42;;;22.00;57.70;;;;;;4860324;29;20044;-77
2022/07/18 06:08:08;;;;;;;4.55;2.60;;;22.00;57.70;;;;;;4861908;29;20483;-77
2022/07/18 06:10:34;;;;;;;4.25;2.50;;;22.00;57.70;;;;;;4861774;29;20026;-78
2022/07/18 06:12:59;;;;;;;4.53;2.30;;;22.00;57.60;;;;;;4861963;29;20406;-78
2022/07/18 06:15:25;;;;;;;5.20;2.58;;;22.00;57.70;;;;;;4860661;29;20301;-78
2022/07/18 06:17:52;;;;;;;3.78;2.40;;;22.00;57.70;;;;;;4861892;29;20033;-78
2022/07/18 06:20:18;;;;;;;3.80;2.10;;;22.00;58.20;;;;;;4860759;29;20404;-77
2022/07/18 06:22:44;;;;;;;4.38;2.67;;;22.00;57.60;;;;;;4876129;29;20030;-78
2022/07/18 06:25:10;;;;;;;4.15;2.80;;;22.00;57.80;;;;;;4860398;29;20037;-78
2022/07/18 06:27:36;;;;;;;4.28;2.30;;;22.00;57.60;;;;;;4861501;29;20372;-78
2022/07/18 06:30:07;;;;;;;3.58;2.30;;;22.00;57.60;;;;;;4860431;29;20045;-77
2022/07/18 06:32:32;;;;;;;4.70;2.45;;;22.00;57.70;;;;;;4875721;29;20025;-77
2022/07/18 06:34:58;;;;;;;4.47;2.40;;;22.00;58.20;;;;;;4861400;29;20034;-78
2022/07/18 06:37:24;;;;;;;4.53;2.10;;;22.00;57.60;;;;;;4875857;29;20082;-78
2022/07/18 06:39:50;;;;;;;3.35;2.35;;;22.00;57.60;;;;;;4860392;29;20037;-77
2022/07/18 06:42:16;;;;;;;4.20;2.50;;;22.00;57.70;;;;;;4860051;29;20039;-78
2022/07/18 06:44:41;;;;;;;3.38;2.38;;;22.00;57.70;;;;;;4861463;29;20037;-78
2022/07/18 06:47:07;;;;;;;4.35;2.58;;;22.00;57.80;;;;;;4861072;29;20441;-77
2022/07/18 06:49:33;;;;;;;4.40;2.38;;;22.00;57.70;;;;;;4860150;29;20029;-77
2022/07/18 06:51:59;;;;;;;4.40;2.28;;;22.00;57.80;;;;;;4875291;29;20547;-77
2022/07/18 06:54:27;;;;;;;3.60;2.28;;;22.00;57.80;;;;;;4860024;29;20048;-78
2022/07/18 06:56:58;;;;;;;4.80;2.50;;;22.00;57.90;;;;;;4860767;29;20034;-77
2022/07/18 06:59:24;;;;;;;4.30;2.70;;;22.00;57.80;;;;;;4844850;29;20037;-77
2022/07/18 07:01:50;;;;;;;3.90;2.33;;;22.00;57.80;;;;;;4875306;29;20052;-78
2022/07/18 07:04:16;;;;;;;4.00;2.20;;;22.00;57.80;;;;;;4859839;29;20033;-77
2022/07/18 07:06:42;;;;;;;4.63;2.17;;;22.00;57.70;;;;;;4844322;29;20069;-78
2022/07/18 07:09:07;;;;;;;4.25;2.65;;;22.00;57.70;;;;;;4861099;29;20041;-77
2022/07/18 07:11:33;;;;;;;3.47;2.13;;;22.00;57.70;;;;;;4859497;29;20162;-78
2022/07/18 07:13:59;;;;;;;2.88;2.13;;;22.00;57.90;;;;;;4860835;29;20026;-78
2022/07/18 07:16:25;;;;;;;4.97;2.15;;;22.10;57.80;;;;;;4860471;29;20029;-78
2022/07/18 07:18:50;;;;;;;3.92;2.17;;;22.00;57.80;;;;;;4860798;29;20532;-78
2022/07/18 07:21:16;;;;;;;4.80;2.60;;;22.00;58.00;;;;;;4860634;29;20376;-78
2022/07/18 07:23:42;;;;;;;3.30;2.20;;;22.00;58.00;;;;;;4860863;29;20086;-78
2022/07/18 07:26:08;;;;;;;5.40;2.70;;;22.10;58.00;;;;;;4860251;29;20044;-77
2022/07/18 07:28:34;;;;;;;4.00;2.20;;;22.10;58.00;;;;;;4860309;29;20045;-78
2022/07/18 07:31:00;;;;;;;3.55;2.10;;;22.00;58.00;;;;;;4860248;29;20040;-77
2022/07/18 07:33:26;;;;;;;4.68;2.38;;;22.10;58.00;;;;;;4860407;29;20038;-77
2022/07/18 07:35:52;;;;;;;3.90;1.98;;;22.10;58.00;;;;;;4860333;29;20029;-78
2022/07/18 07:38:18;;;;;;;3.78;2.20;;;22.10;58.10;;;;;;4860489;29;20057;-78
2022/07/18 07:40:46;;;;;;;2.95;2.10;;;22.10;58.10;;;;;;4860202;29;20033;-77
2022/07/18 07:43:13;;;;;;;3.40;2.17;;;22.10;58.10;;;;;;4859165;29;20034;-77
2022/07/18 07:45:40;;;;;;;4.35;2.55;;;22.10;58.20;;;;;;4859013;29;20045;-77
2022/07/18 07:48:06;;;;;;;4.15;2.42;;;22.10;58.20;;;;;;4860170;29;20033;-77
2022/07/18 07:50:33;;;;;;;4.28;2.35;;;22.10;58.20;;;;;;4860097;29;20092;-77
2022/07/18 07:53:00;;;;;;;3.72;2.20;;;22.10;58.20;;;;;;4858973;29;20117;-77
2022/07/18 07:55:26;;;;;;;4.05;2.53;;;22.10;58.20;;;;;;4859854;29;20029;-77
2022/07/18 07:57:52;;;;;;;4.47;2.50;;;22.10;58.20;;;;;;4859098;29;20574;-77
2022/07/18 08:00:18;;;;;;;3.30;2.08;;;22.10;58.20;;;;;;4860197;29;20025;-77
2022/07/18 08:02:54;;;;;;;3.17;2.15;;;22.10;58.20;;;;;;4859004;29;20044;-77
2022/07/18 08:05:20;;;;;;;4.22;2.47;;;22.10;58.50;;;;;;4859708;29;20065;-76
2022/07/18 08:07:46;;;;;;;3.13;1.90;;;22.20;58.20;;;;;;4874143;29;20065;-76
2022/07/18 08:10:12;;;;;;;4.00;2.42;;;22.20;58.20;;;;;;4858605;29;20058;-76
2022/07/18 08:12:38;;;;;;;3.80;2.10;;;22.20;58.20;;;;;;4858550;29;20026;-76
2022/07/18 08:15:04;;;;;;;3.42;2.10;;;22.20;58.30;;;;;;4859602;29;20419;-76
2022/07/18 08:17:30;;;;;;;3.45;2.20;;;22.20;58.20;;;;;;4859638;29;20052;-76
2022/07/18 08:19:55;;;;;;;4.60;2.40;;;22.20;58.20;;;;;;4859711;29;20475;-76
2022/07/18 08:22:21;;;;;;;4.43;2.33;;;22.20;58.20;;;;;;4859797;29;20108;-78
2022/07/18 08:24:47;;;;;;;3.80;2.40;;;22.20;58.20;;;;;;4859655;29;20065;-77
2022/07/18 08:27:13;;;;;;;3.30;2.03;;;22.20;58.20;;;;;;4859701;29;20037;-77
2022/07/18 08:29:39;;;;;;;3.88;2.25;;;22.20;58.20;;;;;;4858449;29;20045;-77
2022/07/18 08:32:05;;;;;;;3.20;2.20;;;22.20;58.30;;;;;;4858207;29;20037;-77
2022/07/18 08:34:31;;;;;;;4.30;2.15;;;22.20;58.30;;;;;;4858884;29;20040;-77
2022/07/18 08:36:57;;;;;;;4.60;2.30;;;22.20;58.30;;;;;;4858355;29;20487;-77
2022/07/18 08:39:22;;;;;;;3.20;2.03;;;22.20;58.40;;;;;;4862113;29;20026;-77
2022/07/18 08:41:50;;;;;;;4.25;2.30;;;22.20;58.40;;;;;;4865815;29;20030;-77
2022/07/18 08:44:16;;;;;;;3.85;2.20;;;22.20;58.40;;;;;;4864503;29;20104;-77
2022/07/18 08:46:49;;;;;;;4.95;2.70;;;22.20;58.40;;;;;;4864265;29;20036;-77
2022/07/18 08:49:15;;;;;;;3.28;2.25;;;22.20;58.40;;;;;;4864500;29;20406;-77
2022/07/18 08:51:42;;;;;;;3.95;2.47;;;22.20;58.50;;;;;;4865466;29;20177;-77
2022/07/18 08:54:09;;;;;;;3.58;2.17;;;22.20;58.50;;;;;;4865590;29;20058;-77
2022/07/18 08:56:35;;;;;;;3.70;2.35;;;22.20;58.50;;;;;;4848673;29;20483;-77
2022/07/18 08:59:02;;;;;;;4.65;2.10;;;22.20;58.50;;;;;;4865546;29;20045;-77
2022/07/18 09:01:29;;;;;;;4.03;2.47;;;22.20;58.50;;;;;;4865596;29;20054;-77
2022/07/18 09:06:50;;;;;;;4.70;2.30;;;22.20;58.50;;;;;;4865336;29;20049;-77
2022/07/18 09:09:17;;;;;;;4.00;2.30;;;22.20;58.50;;;;;;4865438;29;20555;-77
2022/07/18 09:11:58;;;;;;;2.85;2.10;;;22.20;58.50;;;;;;4865253;29;20030;-77
2022/07/18 09:14:28;;;;;;;4.47;2.45;;;22.20;58.50;;;;;;4865479;29;20034;-77
2022/07/18 09:17:25;;;;;;;2.80;2.03;;;22.20;58.50;;;;;;4865130;29;20116;-77
2022/07/18 09:20:08;;;;;;;4.13;2.20;;;22.20;58.50;;;;;;4879273;29;20041;-77
2022/07/18 09:22:43;;;;;;;3.55;2.25;;;22.20;58.50;;;;;;4865335;29;20038;-77
2022/07/18 09:25:13;;;;;;;3.42;2.15;;;22.20;58.50;;;;;;4865072;29;20086;-77
2022/07/18 09:27:43;;;;;;;3.75;2.10;;;22.20;58.50;;;;;;4864421;29;20076;-77
2022/07/18 09:30:11;;;;;;;;;;;22.20;58.50;;;;;;4849464;29;20048;-76
2022/07/18 09:32:39;;;;;;;4.28;2.58;;;22.20;58.60;;;;;;4865136;29;19916;-76
2022/07/18 09:35:11;;;;;;;3.58;2.10;;;22.20;58.50;;;;;;4879397;29;20402;-77
2022/07/18 09:37:39;;;;;;;3.90;2.40;;;22.20;58.50;;;;;;4865299;29;20026;-76
2022/07/18 09:40:21;;;;;;;4.30;2.42;;;22.20;58.50;;;;;;4879524;29;20037;-77
2022/07/18 09:42:52;;;;;;;3.08;2.10;;;22.20;58.50;;;;;;4863921;29;20065;-76
2022/07/18 09:45:32;;;;;;;3.35;2.22;;;22.20;58.50;;;;;;4879171;29;20025;-77
2022/07/18 09:48:01;;;;;;;3.15;2.28;;;22.20;58.50;;;;;;4865143;29;20514;-77
2022/07/18 09:50:42;;;;;;;4.90;2.28;;;22.20;58.60;;;;;;4863670;29;20029;-77
2022/07/18 09:53:26;;;;;;;3.22;2.15;;;22.20;58.60;;;;;;4862211;29;20030;-77
2022/07/18 09:55:56;;;;;;;3.67;2.30;;;22.20;58.60;;;;;;4861910;29;20509;-77
2022/07/18 09:58:26;;;;;;;3.72;2.35;;;22.20;58.60;;;;;;4862169;29;20109;-77
2022/07/18 10:00:53;;;;;;;3.53;2.10;;;22.20;58.60;;;;;;4860929;29;20072;-77
2022/07/18 10:03:20;;;;;;;3.15;2.20;;;22.20;58.70;;;;;;4860804;29;20072;-77
2022/07/18 10:05:48;;;;;;;4.40;2.03;;;22.20;58.60;;;;;;4860527;29;20038;-77
2022/07/18 10:08:19;;;;;;;3.47;2.10;;;22.20;58.60;;;;;;4861009;29;20128;-77
2022/07/18 10:10:47;;;;;;;2.97;1.88;;;22.20;58.60;;;;;;4861886;29;20033;-77
2022/07/18 10:13:15;;;;;;;3.42;2.20;;;22.20;58.60;;;;;;4861879;29;20022;-77
2022/07/18 10:15:43;;;;;;;4.13;2.38;;;22.20;58.60;;;;;;4861551;29;20068;-77
2022/07/18 10:18:13;;;;;;;5.28;2.35;;;22.20;58.60;;;;;;4860565;29;20037;-77
2022/07/18 10:21:06;;;;;;;4.32;2.38;;;22.20;58.50;;;;;;4862162;29;20124;-77
2022/07/18 10:23:33;;;;;;;3.38;2.20;;;22.20;58.50;;;;;;4861494;29;20042;-77
2022/07/18 10:26:12;;;;;;;3.47;2.25;;;22.30;58.60;;;;;;4861512;29;20044;-77
2022/07/18 10:28:56;;;;;;;3.75;2.40;;;22.30;58.60;;;;;;4860494;29;20554;-76
2022/07/18 10:31:29;;;;;;;3.13;2.03;;;22.20;58.60;;;;;;4860195;29;20093;-76
2022/07/18 10:34:07;;;;;;;3.58;2.35;;;22.20;58.60;;;;;;4860342;29;20051;-77
2022/07/18 10:37:00;;;;;;;3.20;2.20;;;22.30;58.60;;;;;;4861218;29;20029;-77
2022/07/18 10:39:37;;;;;;;4.30;2.20;;;22.20;58.60;;;;;;4861283;29;20063;-77
2022/07/18 10:42:03;;;;;;;3.33;1.83;;;22.20;58.60;;;;;;4861347;29;20090;-77
2022/07/18 10:44:31;;;;;;;3.22;2.05;;;22.20;58.60;;;;;;4861291;29;20436;-77
2022/07/18 10:47:03;;;;;;;3.95;2.28;;;22.30;58.60;;;;;;4859854;29;20072;-77
2022/07/18 10:49:51;;;;;;;3.08;2.10;;;22.20;58.60;;;;;;4844941;29;20101;-78
2022/07/18 10:52:26;;;;;;;3.40;2.00;;;22.20;58.70;;;;;;4861065;29;20030;-77
2022/07/18 10:55:16;;;;;;;3.53;2.00;;;22.30;58.80;;;;;;4861088;29;20065;-77
2022/07/18 10:57:49;;;;;;;4.22;2.30;;;22.20;58.70;;;;;;4861046;29;20021;-77
2022/07/18 11:00:43;;;;;;;4.50;2.75;;;22.20;58.70;;;;;;4860145;29;20408;-77
2022/07/18 11:03:10;;;;;;;3.10;2.17;;;22.20;58.80;;;;;;4859524;29;20065;-77
2022/07/18 11:05:50;;;;;;;3.03;2.00;;;22.20;58.70;;;;;;4860702;29;20030;-77
2022/07/18 11:08:20;;;;;;;3.83;2.20;;;22.20;58.70;;;;;;4859920;29;20060;-77
2022/07/18 11:10:51;;;;;;;3.03;2.10;;;22.20;58.70;;;;;;4860775;29;20037;-77
2022/07/18 11:13:28;;;;;;;3.15;2.22;;;22.20;58.70;;;;;;4859730;29;20419;-77
2022/07/18 11:15:55;;;;;;;3.35;2.13;;;22.20;58.80;;;;;;4860647;29;20022;-77
2022/07/18 11:18:22;;;;;;;3.50;2.28;;;22.20;58.80;;;;;;4860694;29;20049;-79
2022/07/18 11:20:47;;;;;;;3.45;2.10;;;22.20;58.80;;;;;;4875038;29;20034;-77
2022/07/18 11:23:18;;;;;;;3.38;2.10;;;22.20;58.70;;;;;;4859570;29;20029;-78
2022/07/18 11:25:45;;;;;;;3.50;2.20;;;22.20;58.70;;;;;;4860370;29;20034;-78
2022/07/18 11:28:11;;;;;;;3.47;2.40;;;22.20;58.80;;;;;;4859535;29;20046;-77
2022/07/18 11:30:38;;;;;;;4.13;2.03;;;22.20;58.80;;;;;;4874678;29;20045;-78
2022/07/18 11:33:05;;;;;;;3.10;2.10;;;22.20;58.80;;;;;;4874580;29;20088;-77
2022/07/18 11:35:32;;;;;;;3.40;1.90;;;22.20;58.80;;;;;;4859035;29;20112;-78
2022/07/18 11:38:04;;;;;;;3.72;2.22;;;22.20;59.50;;;;;;4859734;29;20097;-78
2022/07/18 11:40:30;;;;;;;3.72;2.40;;;22.20;58.80;;;;;;4860377;29;20033;-77
2022/07/18 11:42:56;;;;;;;3.33;2.03;;;22.20;59.40;;;;;;4860132;29;20041;-77
2022/07/18 11:45:22;;;;;;;3.47;2.28;;;22.20;58.90;;;;;;4858876;29;20037;-78
2022/07/18 11:47:51;;;;;;;3.90;2.30;;;22.20;58.80;;;;;;4860297;29;20037;-78
2022/07/18 11:50:18;;;;;;;3.25;2.00;;;22.20;58.90;;;;;;4860145;29;20033;-78
2022/07/18 11:52:45;;;;;;;3.38;2.10;;;22.20;58.80;;;;;;4860090;29;20037;-78
2022/07/18 11:55:12;;;;;;;3.63;2.10;;;22.20;58.90;;;;;;4843450;29;20052;-78
2022/07/18 11:57:38;;;;;;;3.25;2.10;;;22.20;58.90;;;;;;4860248;29;20032;-78
2022/07/18 12:00:16;;;;;;;3.30;2.22;;;22.20;58.90;;;;;;4843803;29;20025;-78
2022/07/18 12:03:00;;;;;;;3.40;2.00;;;22.20;59.00;;;;;;4858888;29;20071;-78
2022/07/18 12:05:58;;;;;;;2.97;1.95;;;22.20;58.90;;;;;;4859636;29;20524;-78
2022/07/18 12:08:28;;;;;;;2.63;1.88;;;22.20;58.90;;;;;;4873053;29;20049;-78
2022/07/18 12:11:03;;;;;;;3.08;1.92;;;22.20;59.00;;;;;;4858575;29;20118;-78
2022/07/18 12:13:46;;;;;;;3.45;2.10;;;22.30;59.00;;;;;;4859352;29;20029;-78
2022/07/18 12:16:27;;;;;;;3.72;2.28;;;22.20;58.90;;;;;;4858384;29;20026;-77
2022/07/18 12:18:59;;;;;;;2.90;1.88;;;22.20;58.90;;;;;;4858554;29;20057;-77
2022/07/18 12:21:38;;;;;;;3.25;2.13;;;22.20;58.80;;;;;;4858522;29;20059;-77
2022/07/18 12:24:20;;;;;;;4.03;2.25;;;22.30;58.90;;;;;;4859793;29;20108;-78
2022/07/18 12:26:46;;;;;;;4.05;2.28;;;22.30;58.90;;;;;;4858473;29;20037;-77
2022/07/18 12:29:11;;;;;;;2.63;1.80;;;22.30;58.90;;;;;;4828015;29;20547;-78
2022/07/18 12:31:45;;;;;;;2.80;1.85;;;22.30;58.90;;;;;;4858138;29;20052;-77
2022/07/18 12:34:14;;;;;;;3.10;2.22;;;22.30;58.90;;;;;;4843253;29;20048;-78
2022/07/18 12:36:53;;;;;;;3.97;2.10;;;22.30;58.90;;;;;;4858204;29;20041;-77
2022/07/18 12:39:27;;;;;;;3.00;2.10;;;22.30;58.90;;;;;;4859636;29;20034;-78
2022/07/18 12:41:53;;;;;;;3.45;2.20;;;22.30;58.90;;;;;;4873736;29;20073;-78
2022/07/18 12:44:19;;;;;;;4.07;2.25;;;22.30;58.90;;;;;;4859589;29;20067;-77
2022/07/18 12:46:45;;;;;;;4.22;2.30;;;22.30;58.90;;;;;;4859248;29;20065;-77
2022/07/18 12:49:10;;;;;;;3.13;2.00;;;22.30;58.90;;;;;;4859625;29;20041;-78
2022/07/18 12:51:36;;;;;;;3.72;1.98;;;22.30;58.90;;;;;;4858270;29;20566;-78
2022/07/18 12:54:02;;;;;;;3.38;2.08;;;22.30;58.90;;;;;;4859454;29;20482;-78
2022/07/18 12:56:28;;;;;;;2.55;1.80;;;22.30;58.90;;;;;;4859373;29;20090;-77
2022/07/18 12:58:54;;;;;;;3.85;2.10;;;22.30;59.50;;;;;;4859306;29;20029;-78